createdAt,value
2023-05-13T00:01:04.758Z,47.71
2023-05-13T00:03:32.597Z,48.30
2023-05-13T00:06:00.575Z,47.93
2023-05-13T00:08:28.082Z,47.82
2023-05-13T00:10:55.480Z,47.12
2023-05-13T00:13:22.960Z,47.75
2023-05-13T00:15:52.079Z,49.01
2023-05-13T00:18:19.574Z,47.34
2023-05-13T00:20:46.993Z,48.13
2023-05-13T00:23:14.545Z,48.16
2023-05-13T00:25:44.094Z,47.93
2023-05-13T00:28:13.921Z,48.64
2023-05-13T00:30:42.140Z,48.67
2023-05-13T00:33:10.941Z,49.65
2023-05-13T00:35:38.509Z,47.96
2023-05-13T00:38:05.935Z,48.64
2023-05-13T00:40:38.048Z,48.33
2023-05-13T00:43:05.629Z,49.29
2023-05-13T00:45:33.422Z,49.20
2023-05-13T00:48:01.641Z,49.30
2023-05-13T00:50:30.407Z,49.52
2023-05-13T00:52:58.473Z,49.70
2023-05-13T00:55:26.683Z,49.74
2023-05-13T00:57:54.126Z,50.46
2023-05-13T01:00:21.956Z,50.50
2023-05-13T01:02:58.464Z,49.64
2023-05-13T01:05:32.356Z,50.37
2023-05-13T01:08:08.669Z,50.53
2023-05-13T01:10:42.868Z,49.39
2023-05-13T01:13:14.210Z,50.52
2023-05-13T01:15:54.711Z,50.58
2023-05-13T01:18:29.123Z,49.63
2023-05-13T01:20:57.556Z,50.27
2023-05-13T01:23:26.359Z,49.92
2023-05-13T01:25:53.738Z,49.08
2023-05-13T01:28:21.415Z,50.27
2023-05-13T01:30:49.410Z,50.42
2023-05-13T01:33:18.571Z,49.95
2023-05-13T01:35:47.047Z,48.84
2023-05-13T01:38:15.394Z,50.11
2023-05-13T01:40:44.798Z,50.87
2023-05-13T01:43:12.218Z,49.36
2023-05-13T01:45:43.170Z,50.31
2023-05-13T01:48:10.599Z,50.17
2023-05-13T01:50:38.102Z,49.35
2023-05-13T01:53:05.567Z,51.42
2023-05-13T01:55:32.950Z,50.61
2023-05-13T01:58:01.670Z,51.46
2023-05-13T02:00:29.051Z,52.03
2023-05-13T02:02:56.507Z,50.08
2023-05-13T02:05:24.169Z,51.05
2023-05-13T02:07:51.590Z,50.73
2023-05-13T02:10:19.149Z,50.83
2023-05-13T02:12:46.597Z,49.58
2023-05-13T02:15:15.394Z,50.26
2023-05-13T02:17:43.232Z,50.40
2023-05-13T02:20:11.740Z,50.35
2023-05-13T02:22:39.140Z,50.52
2023-05-13T02:25:07.312Z,50.74
2023-05-13T02:27:34.746Z,52.38
2023-05-13T02:30:02.147Z,52.49
2023-05-13T02:32:30.938Z,50.60
2023-05-13T02:34:58.530Z,51.69
2023-05-13T02:37:25.987Z,50.92
2023-05-13T02:39:53.474Z,51.05
2023-05-13T02:42:21.043Z,51.64
2023-05-13T02:44:48.507Z,49.68
2023-05-13T02:47:16.111Z,51.88
2023-05-13T02:49:44.899Z,51.43
2023-05-13T02:52:12.297Z,52.00
2023-05-13T02:54:39.684Z,52.11
2023-05-13T02:57:07.166Z,51.47
2023-05-13T02:59:34.641Z,50.94
2023-05-13T03:02:02.185Z,50.88
2023-05-13T03:04:29.569Z,51.53
2023-05-13T03:06:58.296Z,50.38
2023-05-13T03:09:25.705Z,51.48
2023-05-13T03:11:53.214Z,50.59
2023-05-13T03:14:20.815Z,52.41
2023-05-13T03:16:48.191Z,51.61
2023-05-13T03:19:15.710Z,50.83
2023-05-13T03:21:43.189Z,51.40
2023-05-13T03:24:11.934Z,51.80
2023-05-13T03:26:39.324Z,51.40
2023-05-13T03:29:06.748Z,50.85
2023-05-13T03:31:34.219Z,50.98
2023-05-13T03:34:01.606Z,51.33
2023-05-13T03:36:29.010Z,50.31
2023-05-13T03:38:56.399Z,51.23
2023-05-13T03:41:25.140Z,50.49
2023-05-13T03:43:52.535Z,49.77
2023-05-13T03:46:19.988Z,50.01
2023-05-13T03:48:47.721Z,50.45
2023-05-13T03:51:15.087Z,51.88
2023-05-13T03:53:42.507Z,51.09
2023-05-13T03:56:10.398Z,50.20
2023-05-13T03:58:39.400Z,50.59
2023-05-13T04:01:07.856Z,50.03
2023-05-13T04:03:35.732Z,48.09
2023-05-13T04:06:03.110Z,48.35
2023-05-13T04:08:30.789Z,47.79
2023-05-13T04:10:58.152Z,46.79
2023-05-13T04:13:25.520Z,45.77
2023-05-13T04:15:55.299Z,45.49
2023-05-13T04:18:22.856Z,42.94
2023-05-13T04:20:50.257Z,41.60
2023-05-13T04:23:17.641Z,41.39
2023-05-13T04:25:51.407Z,42.20
2023-05-13T04:28:18.845Z,44.15
2023-05-13T04:30:46.242Z,44.64
2023-05-13T04:33:15.010Z,45.06
2023-05-13T04:35:42.449Z,44.09
2023-05-13T04:38:10.288Z,46.71
2023-05-13T04:40:37.710Z,45.16
2023-05-13T04:43:05.146Z,44.64
2023-05-13T04:45:32.630Z,43.87
2023-05-13T04:48:00.085Z,44.90
2023-05-13T04:50:28.837Z,44.56
2023-05-13T04:52:56.978Z,45.93
2023-05-13T04:55:26.753Z,45.98
2023-05-13T04:57:55.045Z,45.62
2023-05-13T05:00:22.643Z,44.56
2023-05-13T05:02:50.438Z,44.97
2023-05-13T05:05:18.504Z,45.53
2023-05-13T05:07:47.459Z,45.65
2023-05-13T05:10:15.485Z,45.83
2023-05-13T05:12:43.185Z,47.53
2023-05-13T05:15:15.667Z,46.08
2023-05-13T05:17:43.402Z,46.62
2023-05-13T05:20:12.262Z,45.79
2023-05-13T05:22:41.740Z,44.71
2023-05-13T05:25:11.637Z,45.39
2023-05-13T05:27:39.159Z,41.29
2023-05-13T05:30:07.866Z,39.51
2023-05-13T05:32:35.677Z,36.51
2023-05-13T05:35:03.929Z,39.31
2023-05-13T05:37:31.841Z,36.06
2023-05-13T05:39:59.277Z,37.52
2023-05-13T05:42:27.990Z,39.61
2023-05-13T05:44:55.596Z,40.14
2023-05-13T05:47:23.028Z,39.34
2023-05-13T05:49:50.633Z,38.56
2023-05-13T05:52:17.996Z,37.96
2023-05-13T05:54:45.633Z,38.19
2023-05-13T05:57:13.098Z,40.99
2023-05-13T05:59:41.824Z,36.63
2023-05-13T06:02:09.302Z,35.82
2023-05-13T06:04:36.805Z,37.01
2023-05-13T06:07:04.292Z,37.72
2023-05-13T06:09:32.036Z,38.09
2023-05-13T06:11:59.425Z,37.69
2023-05-13T06:14:26.996Z,38.03
2023-05-13T06:16:56.017Z,38.39
2023-05-13T06:19:23.619Z,39.37
2023-05-13T06:21:50.988Z,40.43
2023-05-13T06:24:18.416Z,41.42
2023-05-13T06:26:46.141Z,39.87
2023-05-13T06:29:13.630Z,39.10
2023-05-13T06:31:41.113Z,40.00
2023-05-13T06:34:16.325Z,38.46
2023-05-13T06:36:44.069Z,39.55
2023-05-13T06:39:12.576Z,39.46
2023-05-13T06:41:40.290Z,40.95
2023-05-13T06:44:08.299Z,41.14
2023-05-13T06:46:36.170Z,41.48
2023-05-13T06:49:03.683Z,40.87
2023-05-13T06:51:33.822Z,40.45
2023-05-13T06:54:01.579Z,39.38
2023-05-13T06:56:30.432Z,40.69
2023-05-13T06:58:57.836Z,40.82
2023-05-13T07:01:25.299Z,41.20
2023-05-13T07:03:52.891Z,41.51
2023-05-13T07:06:20.343Z,41.54
2023-05-13T07:08:49.120Z,40.65
2023-05-13T07:11:16.765Z,41.56
2023-05-13T07:13:44.530Z,41.09
2023-05-13T07:16:14.527Z,40.85
2023-05-13T07:18:42.200Z,41.41
2023-05-13T07:21:09.795Z,40.84
2023-05-13T07:23:37.248Z,41.09
2023-05-13T07:26:06.139Z,41.45
2023-05-13T07:28:33.584Z,41.55
2023-05-13T07:31:01.131Z,40.57
2023-05-13T07:33:29.078Z,38.76
2023-05-13T07:35:56.662Z,38.77
2023-05-13T07:38:24.124Z,38.74
2023-05-13T07:40:51.521Z,38.51
2023-05-13T07:43:23.828Z,38.13
2023-05-13T07:45:51.860Z,37.19
2023-05-13T07:48:19.651Z,37.65
2023-05-13T07:50:47.337Z,38.28
2023-05-13T07:53:15.258Z,37.17
2023-05-13T07:55:43.123Z,37.51
2023-05-13T07:58:10.516Z,36.62
2023-05-13T08:00:39.433Z,36.95
2023-05-13T08:03:06.989Z,36.51
2023-05-13T08:05:34.521Z,36.39
2023-05-13T08:08:02.825Z,36.17
2023-05-13T08:10:30.497Z,36.81
2023-05-13T08:12:58.354Z,36.77
2023-05-13T08:15:27.095Z,36.98
2023-05-13T08:17:55.854Z,37.46
2023-05-13T08:20:29.437Z,37.32
2023-05-13T08:22:58.124Z,37.36
2023-05-13T08:25:26.130Z,38.19
2023-05-13T08:27:53.557Z,37.94
2023-05-13T08:30:21.022Z,38.29
2023-05-13T08:32:48.544Z,38.01
2023-05-13T08:35:17.459Z,38.04
2023-05-13T08:37:44.938Z,37.89
2023-05-13T08:40:12.745Z,38.53
2023-05-13T08:42:40.895Z,37.79
2023-05-13T08:45:09.874Z,38.83
2023-05-13T08:47:46.082Z,38.61
2023-05-13T08:50:14.345Z,37.96
2023-05-13T08:52:44.427Z,38.10
2023-05-13T08:55:12.058Z,36.73
2023-05-13T08:57:39.734Z,37.69
2023-05-13T09:00:08.566Z,38.03
2023-05-13T09:02:36.186Z,38.88
2023-05-13T09:05:07.336Z,39.10
2023-05-13T09:07:35.077Z,39.67
2023-05-13T09:10:04.084Z,39.32
2023-05-13T09:12:47.888Z,38.73
2023-05-13T09:15:17.317Z,38.69
2023-05-13T09:17:45.884Z,38.17
2023-05-13T09:20:15.074Z,38.23
2023-05-13T09:22:45.894Z,37.58
2023-05-13T09:25:16.338Z,37.04
2023-05-13T09:27:47.120Z,37.74
2023-05-13T09:30:15.312Z,36.92
2023-05-13T09:32:43.919Z,37.45
2023-05-13T09:35:16.649Z,36.44
2023-05-13T09:37:48.501Z,36.36
2023-05-13T09:40:18.409Z,35.77
2023-05-13T09:42:47.263Z,36.66
2023-05-13T09:45:16.388Z,35.62
2023-05-13T09:47:44.575Z,35.80
2023-05-13T09:50:13.297Z,36.46
2023-05-13T09:52:40.784Z,36.06
2023-05-13T09:55:10.782Z,34.47
2023-05-13T09:57:40.822Z,34.68
2023-05-13T10:00:15.263Z,32.46
2023-05-13T10:02:52.926Z,33.23
2023-05-13T10:05:20.951Z,32.47
2023-05-13T10:07:48.514Z,32.57
2023-05-13T10:10:16.064Z,32.13
2023-05-13T10:12:44.974Z,32.44
2023-05-13T10:15:12.914Z,31.27
2023-05-13T10:17:41.665Z,31.53
2023-05-13T10:20:09.620Z,32.01
2023-05-13T10:22:37.904Z,31.55
2023-05-13T10:25:07.289Z,32.34
2023-05-13T10:27:35.181Z,31.91
2023-05-13T10:30:09.585Z,31.83
2023-05-13T10:32:39.147Z,30.90
2023-05-13T10:35:11.916Z,31.37
2023-05-13T10:38:00.320Z,31.53
2023-05-13T10:41:09.424Z,31.42
2023-05-13T10:43:37.582Z,31.81
2023-05-13T10:46:08.103Z,31.00
2023-05-13T10:48:43.521Z,31.08
2023-05-13T10:51:15.255Z,30.96
2023-05-13T10:53:47.211Z,31.33
2023-05-13T10:56:15.002Z,30.64
2023-05-13T10:58:42.677Z,31.65
2023-05-13T11:01:16.864Z,31.75
2023-05-13T11:03:53.037Z,32.01
2023-05-13T11:06:22.411Z,31.65
2023-05-13T11:08:53.584Z,31.67
2023-05-13T11:11:30.161Z,31.68
2023-05-13T11:14:08.570Z,31.08
2023-05-13T11:16:38.441Z,30.82
2023-05-13T11:19:19.154Z,31.06
2023-05-13T11:21:50.556Z,30.71
2023-05-13T11:24:19.931Z,30.79
2023-05-13T11:26:51.047Z,31.19
2023-05-13T11:29:29.733Z,31.60
2023-05-13T11:32:00.850Z,30.84
2023-05-13T11:34:29.134Z,31.16
2023-05-13T11:37:06.937Z,30.67
2023-05-13T11:39:34.766Z,30.15
2023-05-13T11:42:07.482Z,30.57
2023-05-13T11:44:35.631Z,30.60
2023-05-13T11:47:07.991Z,30.89
2023-05-13T11:49:38.793Z,31.26
2023-05-13T11:52:08.744Z,31.64
2023-05-13T11:54:47.449Z,31.22
2023-05-13T11:57:22.304Z,31.09
2023-05-13T11:59:54.703Z,30.68
2023-05-13T12:02:25.068Z,31.10
2023-05-13T12:04:53.350Z,30.33
2023-05-13T12:07:22.657Z,30.48
2023-05-13T12:09:50.382Z,31.21
2023-05-13T12:12:18.505Z,30.56
2023-05-13T12:14:47.022Z,30.26
2023-05-13T12:17:15.219Z,30.85
2023-05-13T12:20:06.376Z,30.42
2023-05-13T12:22:34.412Z,30.18
2023-05-13T12:25:06.206Z,30.55
2023-05-13T12:27:33.661Z,30.75
2023-05-13T12:30:01.109Z,30.38
2023-05-13T12:32:28.800Z,30.16
2023-05-13T12:34:57.770Z,29.67
2023-05-13T12:37:26.089Z,30.38
2023-05-13T12:40:10.377Z,30.53
2023-05-13T12:42:37.910Z,30.30
2023-05-13T12:45:07.401Z,30.54
2023-05-13T12:47:49.178Z,30.77
2023-05-13T12:50:18.063Z,30.61
2023-05-13T12:52:45.692Z,31.17
2023-05-13T12:55:14.024Z,30.35
2023-05-13T12:57:42.106Z,30.77
2023-05-13T13:00:12.005Z,30.81
2023-05-13T13:02:42.278Z,31.48
2023-05-13T13:05:10.117Z,31.19
2023-05-13T13:07:40.107Z,31.30
2023-05-13T13:10:08.562Z,31.80
2023-05-13T13:12:37.020Z,31.56
2023-05-13T13:15:05.038Z,31.34
2023-05-13T13:17:32.526Z,31.23
2023-05-13T13:20:00.025Z,30.70
2023-05-13T13:22:27.754Z,32.21
2023-05-13T13:24:56.458Z,32.06
2023-05-13T13:27:23.897Z,31.31
2023-05-13T13:29:51.289Z,31.98
2023-05-13T13:32:18.737Z,33.00
2023-05-13T13:34:46.197Z,32.79
2023-05-13T13:37:13.632Z,34.03
2023-05-13T13:39:41.886Z,34.10
2023-05-13T13:42:10.639Z,33.19
2023-05-13T13:44:39.454Z,32.74
2023-05-13T13:47:06.959Z,33.33
2023-05-13T13:49:34.349Z,33.45
2023-05-13T13:52:01.736Z,33.47
2023-05-13T13:54:29.152Z,32.50
2023-05-13T13:56:56.601Z,33.08
2023-05-13T13:59:25.469Z,33.25
2023-05-13T14:01:53.805Z,33.20
2023-05-13T14:04:23.405Z,32.75
2023-05-13T14:06:51.776Z,33.12
2023-05-13T14:09:19.764Z,33.13
2023-05-13T14:11:47.254Z,33.14
2023-05-13T14:14:14.708Z,32.57
2023-05-13T14:16:44.236Z,33.02
2023-05-13T14:19:12.308Z,33.03
2023-05-13T14:21:39.803Z,33.60
2023-05-13T14:24:08.423Z,33.73
2023-05-13T14:26:36.134Z,33.82
2023-05-13T14:29:03.582Z,33.67
2023-05-13T14:31:31.007Z,33.74
2023-05-13T14:33:59.759Z,33.53
2023-05-13T14:36:27.531Z,33.94
2023-05-13T14:38:55.152Z,34.89
2023-05-13T14:41:23.176Z,33.45
2023-05-13T14:43:50.599Z,33.57
2023-05-13T14:46:18.366Z,33.50
2023-05-13T14:48:45.839Z,33.25
2023-05-13T14:51:14.638Z,32.87
2023-05-13T14:53:42.944Z,33.11
2023-05-13T14:56:10.416Z,33.50
2023-05-13T14:58:37.944Z,33.22
2023-05-13T15:01:05.581Z,33.39
2023-05-13T15:03:33.126Z,33.82
2023-05-13T15:06:00.619Z,33.66
2023-05-13T15:08:29.608Z,33.57
2023-05-13T15:10:57.214Z,33.06
2023-05-13T15:13:27.101Z,33.33
2023-05-13T15:15:55.486Z,33.07
2023-05-13T15:18:22.973Z,33.32
2023-05-13T15:20:50.402Z,32.69
2023-05-13T15:23:17.812Z,32.05
2023-05-13T15:25:46.889Z,32.43
2023-05-13T15:28:14.337Z,31.87
2023-05-13T15:30:42.593Z,31.86
2023-05-13T15:33:10.328Z,31.70
2023-05-13T15:35:37.813Z,31.82
2023-05-13T15:38:05.457Z,31.71
2023-05-13T15:40:32.849Z,31.53
2023-05-13T15:43:01.702Z,31.61
2023-05-13T15:45:29.898Z,31.58
2023-05-13T15:47:57.530Z,32.18
2023-05-13T15:50:25.957Z,31.63
2023-05-13T15:52:54.630Z,32.10
2023-05-13T15:55:22.484Z,31.74
2023-05-13T15:57:50.549Z,31.67
2023-05-13T16:00:20.763Z,31.43
2023-05-13T16:02:48.444Z,35.00
2023-05-13T16:05:19.156Z,34.92
2023-05-13T16:07:46.765Z,36.32
2023-05-13T16:10:15.290Z,37.91
2023-05-13T16:12:42.899Z,38.46
2023-05-13T16:15:11.266Z,40.00
2023-05-13T16:17:40.057Z,41.62
2023-05-13T16:20:10.885Z,42.42
2023-05-13T16:22:39.113Z,43.98
2023-05-13T16:25:08.740Z,43.80
2023-05-13T16:27:37.108Z,43.34
2023-05-13T16:30:06.861Z,43.99
2023-05-13T16:32:35.347Z,43.59
2023-05-13T16:35:04.427Z,42.32
2023-05-13T16:37:34.494Z,43.36
2023-05-13T16:40:01.931Z,44.01
2023-05-13T16:42:29.382Z,43.51
2023-05-13T16:44:56.777Z,43.67
2023-05-13T16:47:24.543Z,44.59
2023-05-13T16:49:52.088Z,44.67
2023-05-13T16:52:20.838Z,44.75
2023-05-13T16:54:48.364Z,43.83
2023-05-13T16:57:16.448Z,43.98
2023-05-13T16:59:44.120Z,42.88
2023-05-13T17:02:11.899Z,42.06
2023-05-13T17:04:39.331Z,41.78
2023-05-13T17:07:07.356Z,43.23
2023-05-13T17:09:36.348Z,42.33
2023-05-13T17:12:03.949Z,42.56
2023-05-13T17:14:31.336Z,42.00
2023-05-13T17:16:58.866Z,42.52
2023-05-13T17:19:26.326Z,42.91
2023-05-13T17:21:53.730Z,42.08
2023-05-13T17:24:22.260Z,41.89
2023-05-13T17:26:51.320Z,42.77
2023-05-13T17:29:18.793Z,42.15
2023-05-13T17:31:46.445Z,41.60
2023-05-13T17:34:13.985Z,41.17
2023-05-13T17:36:41.431Z,41.47
2023-05-13T17:39:08.873Z,42.04
2023-05-13T17:41:36.345Z,41.92
2023-05-13T17:44:05.386Z,41.45
2023-05-13T17:46:32.774Z,41.70
2023-05-13T17:49:00.276Z,42.75
2023-05-13T17:51:27.695Z,42.83
2023-05-13T17:53:55.137Z,43.02
2023-05-13T17:56:22.577Z,41.76
2023-05-13T17:58:50.021Z,41.62
2023-05-13T18:01:19.753Z,41.98
2023-05-13T18:03:47.275Z,43.39
2023-05-13T18:06:14.876Z,42.93
2023-05-13T18:08:42.426Z,42.80
2023-05-13T18:11:10.088Z,43.79
2023-05-13T18:13:37.569Z,43.26
2023-05-13T18:16:06.020Z,43.84
2023-05-13T18:18:34.950Z,43.13
2023-05-13T18:21:02.622Z,43.30
2023-05-13T18:23:30.133Z,43.33
2023-05-13T18:25:57.621Z,43.91
2023-05-13T18:28:25.223Z,44.07
2023-05-13T18:30:52.688Z,43.46
2023-05-13T18:33:21.519Z,43.79
2023-05-13T18:35:50.298Z,44.26
2023-05-13T18:38:17.691Z,45.03
2023-05-13T18:40:45.334Z,44.90
2023-05-13T18:43:13.587Z,46.61
2023-05-13T18:45:41.073Z,46.72
2023-05-13T18:48:08.590Z,46.39
2023-05-13T18:50:36.109Z,45.92
2023-05-13T18:53:04.871Z,45.98
2023-05-13T18:55:32.359Z,46.12
2023-05-13T18:57:59.771Z,45.53
2023-05-13T19:00:27.265Z,45.07
2023-05-13T19:02:54.884Z,45.14
2023-05-13T19:05:22.453Z,45.43
2023-05-13T19:07:49.926Z,46.68
2023-05-13T19:10:18.841Z,46.25
2023-05-13T19:12:46.296Z,46.67
2023-05-13T19:15:13.742Z,47.16
2023-05-13T19:17:42.192Z,47.58
2023-05-13T19:20:10.892Z,47.05
2023-05-13T19:22:38.530Z,47.43
2023-05-13T19:25:06.724Z,47.72
2023-05-13T19:27:35.763Z,48.66
2023-05-13T19:30:03.543Z,48.20
2023-05-13T19:32:31.198Z,48.67
2023-05-13T19:34:58.638Z,48.43
2023-05-13T19:37:26.396Z,48.66
2023-05-13T19:39:53.778Z,48.78
2023-05-13T19:42:21.749Z,48.97
2023-05-13T19:44:50.553Z,48.67
2023-05-13T19:47:18.100Z,48.56
2023-05-13T19:49:45.874Z,49.30
2023-05-13T19:52:13.273Z,48.24
2023-05-13T19:54:40.700Z,48.79
2023-05-13T19:57:08.139Z,48.51
2023-05-13T19:59:35.962Z,49.02
2023-05-13T20:02:05.213Z,48.35
2023-05-13T20:04:32.706Z,47.77
2023-05-13T20:07:00.133Z,48.31
2023-05-13T20:09:27.711Z,48.96
2023-05-13T20:11:55.131Z,49.23
2023-05-13T20:14:24.900Z,49.90
2023-05-13T20:16:52.961Z,49.54
2023-05-13T20:19:21.825Z,48.89
2023-05-13T20:21:49.328Z,48.73
2023-05-13T20:24:16.731Z,48.96
2023-05-13T20:26:44.278Z,50.39
2023-05-13T20:29:12.546Z,50.61
2023-05-13T20:31:42.476Z,50.72
2023-05-13T20:34:10.034Z,50.49
2023-05-13T20:36:39.233Z,50.44
2023-05-13T20:39:07.633Z,50.53
2023-05-13T20:41:35.083Z,51.01
2023-05-13T20:44:02.530Z,50.35
2023-05-13T20:46:30.167Z,50.75
2023-05-13T20:48:57.729Z,51.40
2023-05-13T20:51:25.107Z,50.86
2023-05-13T20:53:53.830Z,50.34
2023-05-13T20:56:22.111Z,50.81
2023-05-13T20:58:49.497Z,51.10
2023-05-13T21:01:16.953Z,51.91
2023-05-13T21:03:44.402Z,52.06
2023-05-13T21:06:12.283Z,52.19
2023-05-13T21:08:40.221Z,52.15
2023-05-13T21:11:08.991Z,52.13
2023-05-13T21:13:36.478Z,53.43
2023-05-13T21:16:04.851Z,52.23
2023-05-13T21:18:33.953Z,53.02
2023-05-13T21:21:02.358Z,53.83
2023-05-13T21:23:29.821Z,53.43
2023-05-13T21:25:57.350Z,53.02
2023-05-13T21:28:26.094Z,53.29
2023-05-13T21:30:53.536Z,53.19
2023-05-13T21:33:20.989Z,53.55
2023-05-13T21:35:48.365Z,52.81
2023-05-13T21:38:15.762Z,52.75
2023-05-13T21:40:43.898Z,52.70
2023-05-13T21:43:11.713Z,53.49
2023-05-13T21:45:40.862Z,52.90
2023-05-13T21:48:08.596Z,52.62
2023-05-13T21:50:36.113Z,51.91
2023-05-13T21:53:04.404Z,53.10
2023-05-13T21:55:34.783Z,52.98
2023-05-13T21:58:02.717Z,53.16
2023-05-13T22:00:30.256Z,53.37
2023-05-13T22:03:00.412Z,53.65
2023-05-13T22:05:28.227Z,53.28
2023-05-13T22:07:55.683Z,53.27
2023-05-13T22:10:23.387Z,54.79
2023-05-13T22:12:51.069Z,54.51
2023-05-13T22:15:18.591Z,54.43
2023-05-13T22:17:46.779Z,53.55
2023-05-13T22:20:17.166Z,53.38
2023-05-13T22:22:44.564Z,53.92
2023-05-13T22:25:12.022Z,53.54
2023-05-13T22:27:39.473Z,53.02
2023-05-13T22:30:08.218Z,53.74
2023-05-13T22:32:36.955Z,54.15
2023-05-13T22:35:04.826Z,53.89
2023-05-13T22:37:33.539Z,54.34
2023-05-13T22:40:03.181Z,54.71
2023-05-13T22:42:30.610Z,54.27
2023-05-13T22:44:57.995Z,53.88
2023-05-13T22:47:25.596Z,54.08
2023-05-13T22:49:53.027Z,54.09
2023-05-13T22:52:20.636Z,54.12
2023-05-13T22:54:49.391Z,53.82
2023-05-13T22:57:17.082Z,54.01
2023-05-13T22:59:44.450Z,54.01
2023-05-13T23:02:12.076Z,54.23
2023-05-13T23:04:39.583Z,54.36
2023-05-13T23:07:07.042Z,55.02
2023-05-13T23:09:34.486Z,54.89
2023-05-13T23:12:03.432Z,55.24
2023-05-13T23:14:30.939Z,54.24
2023-05-13T23:16:58.356Z,55.47
2023-05-13T23:19:26.354Z,55.50
2023-05-13T23:21:53.807Z,55.64
2023-05-13T23:24:21.239Z,55.09
2023-05-13T23:26:49.750Z,54.49
2023-05-13T23:29:18.494Z,54.95
2023-05-13T23:31:45.935Z,55.05
2023-05-13T23:34:13.412Z,54.84
2023-05-13T23:36:40.810Z,55.68
2023-05-13T23:39:08.223Z,54.93
2023-05-13T23:41:35.813Z,54.77
2023-05-13T23:44:03.426Z,55.29
2023-05-13T23:46:32.334Z,55.75
2023-05-13T23:48:59.817Z,55.11
2023-05-13T23:51:27.367Z,56.00
2023-05-13T23:53:55.482Z,55.15
2023-05-13T23:56:23.094Z,56.11
2023-05-13T23:58:50.494Z,55.44
